Time;durP1;ratioP1;P1;durP2;ratioP2;P2;SDS_P1;SDS_P2;PMS_P1;PMS_P2;Temp;Humidity;BMP_temperature;BMP_pressure;BME280_temperature;BME280_humidity;BME280_pressure;Samples;Min_cycle;Max_cycle;Signal;HPM_P1;HPM_P2
2022/11/13 00:01:23;;;;;;;9.13;6.90;;;;;;;18.63;51.33;102708.03;5084813;28;20035;-60
2022/11/13 00:03:48;;;;;;;8.35;6.97;;;;;;;18.81;51.51;102743.44;5083679;28;20128;-60
2022/11/13 00:06:15;;;;;;;9.68;7.25;;;;;;;18.76;51.17;102737.56;5084437;28;20024;-60
2022/11/13 00:08:40;;;;;;;9.57;7.28;;;;;;;18.75;51.45;102734.03;5083592;28;20034;-60
2022/11/13 00:11:25;;;;;;;6.72;5.93;;;;;;;18.78;51.32;102743.72;5084321;28;20051;-60
2022/11/13 00:13:50;;;;;;;8.75;6.75;;;;;;;18.79;51.20;102735.50;5084140;28;20064;-60
2022/11/13 00:16:18;;;;;;;8.60;7.00;;;;;;;18.76;51.38;102730.34;5083893;28;20028;-60
2022/11/13 00:18:45;;;;;;;8.80;7.00;;;;;;;18.77;51.45;102723.09;5083976;28;20028;-59
2022/11/13 00:21:13;;;;;;;7.63;6.35;;;;;;;18.76;51.32;102721.41;5098704;28;20056;-60
2022/11/13 00:23:39;;;;;;;7.60;6.13;;;;;;;18.74;51.16;102721.53;5071989;28;20024;-60
2022/11/13 00:26:13;;;;;;;7.70;6.25;;;;;;;18.73;51.35;102712.59;5083826;28;20522;-60
2022/11/13 00:28:38;;;;;;;8.57;7.00;;;;;;;18.74;51.38;102713.44;5083974;28;20044;-60
2022/11/13 00:31:05;;;;;;;7.30;6.35;;;;;;;18.72;51.25;102708.16;5084157;28;20024;-61
2022/11/13 00:33:31;;;;;;;7.30;6.07;;;;;;;18.71;51.17;102709.16;5083542;28;20029;-60
2022/11/13 00:36:15;;;;;;;7.22;6.40;;;;;;;18.58;51.14;102688.69;5083697;28;20052;-61
2022/11/13 00:38:40;;;;;;;7.18;6.30;;;;;;;18.71;51.11;102708.31;5083703;28;20032;-61
2022/11/13 00:41:05;;;;;;;9.13;6.78;;;;;;;18.70;51.25;102703.91;5083647;28;20503;-62
2022/11/13 00:43:31;;;;;;;8.50;6.43;;;;;;;18.54;51.39;102679.97;5083534;28;20107;-61
2022/11/13 00:45:56;;;;;;;8.38;6.50;;;;;;;18.68;51.43;102705.81;5083642;28;20048;-61
2022/11/13 00:48:21;;;;;;;7.50;6.28;;;;;;;18.56;51.48;102685.25;5083702;28;20118;-61
2022/11/13 00:50:47;;;;;;;8.70;6.40;;;;;;;18.67;51.44;102701.41;5083740;28;20047;-60
2022/11/13 00:53:12;;;;;;;6.60;5.70;;;;;;;18.66;51.48;102713.16;5083217;28;20037;-61
2022/11/13 00:55:38;;;;;;;7.63;5.95;;;;;;;18.63;51.52;102708.03;5083325;28;20024;-61
2022/11/13 00:58:03;;;;;;;9.93;7.05;;;;;;;18.63;51.19;102710.72;5083519;28;20024;-60
2022/11/13 01:00:29;;;;;;;5.90;5.00;;;;;;;18.60;51.19;102698.34;5083361;28;20045;-60
2022/11/13 01:02:57;;;;;;;8.95;6.40;;;;;;;18.62;51.52;102709.88;5083648;28;20032;-60
2022/11/13 01:05:22;;;;;;;6.32;5.53;;;;;;;18.60;51.30;102695.66;5083060;28;20028;-60
2022/11/13 01:07:47;;;;;;;7.20;5.60;;;;;;;18.62;51.24;102704.47;5083291;28;20062;-61
2022/11/13 01:10:12;;;;;;;7.25;5.30;;;;;;;18.62;51.24;102703.63;5083116;28;20103;-61
2022/11/13 01:12:38;;;;;;;7.18;6.20;;;;;;;18.61;51.10;102697.38;5083693;28;20021;-60
2022/11/13 01:15:03;;;;;;;6.80;5.30;;;;;;;18.61;51.44;102688.44;5102859;28;20042;-60
2022/11/13 01:17:29;;;;;;;6.53;5.15;;;;;;;18.59;51.30;102691.25;5103256;28;20080;-60
2022/11/13 01:19:54;;;;;;;5.93;5.32;;;;;;;18.59;50.98;102690.38;5103399;28;20044;-60
2022/11/13 01:22:19;;;;;;;6.10;5.50;;;;;;;18.58;51.20;102689.53;5103555;28;20024;-60
2022/11/13 01:24:44;;;;;;;6.20;5.53;;;;;;;18.48;51.50;102669.72;5103205;28;20087;-60
2022/11/13 01:27:12;;;;;;;8.05;5.68;;;;;;;18.58;51.21;102686.00;5103476;28;20020;-60
2022/11/13 01:29:37;;;;;;;7.63;6.00;;;;;;;18.57;51.15;102687.84;5103531;28;20032;-61
2022/11/13 01:32:02;;;;;;;6.30;5.50;;;;;;;18.35;51.31;102655.50;5103439;28;20035;-60
2022/11/13 01:34:28;;;;;;;7.72;5.30;;;;;;;18.56;51.27;102671.78;5103335;28;20028;-60
2022/11/13 01:36:53;;;;;;;5.88;4.72;;;;;;;18.55;51.32;102678.16;5103354;28;20028;-59
2022/11/13 01:39:18;;;;;;;6.75;5.45;;;;;;;18.44;51.31;102655.63;5086442;28;20489;-60
2022/11/13 01:41:43;;;;;;;7.55;5.38;;;;;;;18.54;51.06;102673.75;5082861;28;20028;-60
2022/11/13 01:44:14;;;;;;;5.65;4.85;;;;;;;18.53;50.97;102666.66;5083164;28;20032;-60
2022/11/13 01:46:52;;;;;;;5.57;4.95;;;;;;;18.52;51.01;102668.50;5083006;28;20027;-61
2022/11/13 01:49:23;;;;;;;6.53;5.40;;;;;;;18.50;51.23;102659.66;5064820;28;20023;-61
2022/11/13 01:52:19;;;;;;;6.55;5.30;;;;;;;18.50;51.10;102659.66;5083002;28;20032;-60
2022/11/13 01:54:47;;;;;;;5.85;5.13;;;;;;;18.50;50.86;102651.59;5062791;28;20131;-60
2022/11/13 01:57:14;;;;;;;7.50;5.38;;;;;;;18.48;50.93;102650.88;5083060;28;20039;-60
2022/11/13 01:59:43;;;;;;;7.05;5.10;;;;;;;18.47;51.08;102652.66;5082628;28;20024;-60
2022/11/13 02:02:08;;;;;;;;;;;;;;;18.47;51.27;102651.81;5065458;28;20048;-60
2022/11/13 02:04:34;;;;;;;6.40;4.80;;;;;;;18.47;51.21;102649.13;5082768;28;19916;-60
2022/11/13 02:07:03;;;;;;;6.93;5.72;;;;;;;18.46;51.04;102642.03;5064891;28;20055;-60
2022/11/13 02:09:42;;;;;;;6.03;5.28;;;;;;;18.31;51.13;102614.53;5063777;28;20040;-60
2022/11/13 02:12:10;;;;;;;5.18;4.40;;;;;;;18.20;51.23;102592.97;5064899;28;20048;-60
2022/11/13 02:14:37;;;;;;;5.68;4.68;;;;;;;18.41;50.91;102637.03;5099380;28;20038;-60
2022/11/13 02:17:06;;;;;;;5.38;4.53;;;;;;;18.40;51.04;102635.31;5084670;28;20484;-60
2022/11/13 02:19:34;;;;;;;6.00;4.38;;;;;;;18.40;51.09;102635.31;5102526;28;20103;-59
2022/11/13 02:22:15;;;;;;;5.15;4.63;;;;;;;18.39;50.92;102636.31;5084835;28;20024;-60
2022/11/13 02:24:43;;;;;;;6.78;5.03;;;;;;;18.40;51.24;102631.78;5084104;28;20024;-60
2022/11/13 02:27:15;;;;;;;6.95;4.85;;;;;;;18.39;51.21;102630.91;5105840;28;20028;-60
2022/11/13 02:29:40;;;;;;;5.80;4.97;;;;;;;18.38;50.89;102621.09;5088520;28;20050;-61
2022/11/13 02:32:05;;;;;;;5.85;4.63;;;;;;;18.38;51.20;102617.56;5106549;28;20322;-60
2022/11/13 02:34:30;;;;;;;6.07;5.03;;;;;;;18.34;51.33;102611.56;5106356;28;20120;-60
2022/11/13 02:36:56;;;;;;;5.65;4.68;;;;;;;18.36;50.85;102609.63;5106368;28;20028;-60
2022/11/13 02:39:21;;;;;;;6.82;4.88;;;;;;;18.36;50.86;102609.63;5068924;28;20176;-60
2022/11/13 02:41:46;;;;;;;5.60;4.50;;;;;;;18.23;50.90;102587.34;5085346;28;20040;-60
2022/11/13 02:44:12;;;;;;;5.50;4.32;;;;;;;18.34;50.96;102613.41;5086054;28;20072;-61
2022/11/13 02:46:37;;;;;;;4.88;4.38;;;;;;;18.34;50.97;102613.41;5085669;28;20143;-59
2022/11/13 02:49:03;;;;;;;5.18;4.38;;;;;;;18.33;51.12;102607.16;5085713;28;20036;-59
2022/11/13 02:51:28;;;;;;;5.07;4.20;;;;;;;18.32;50.81;102608.16;5086015;28;20100;-60
2022/11/13 02:53:54;;;;;;;5.60;4.43;;;;;;;18.32;50.91;102601.91;5085490;28;20030;-59
2022/11/13 02:56:19;;;;;;;5.75;4.45;;;;;;;18.31;50.90;102600.16;5085219;28;20039;-60
2022/11/13 02:58:44;;;;;;;5.43;4.55;;;;;;;18.30;50.92;102604.69;5085377;28;20038;-61
2022/11/13 03:01:09;;;;;;;5.55;4.70;;;;;;;18.29;50.92;102600.31;5085731;28;20086;-61
2022/11/13 03:03:34;;;;;;;5.82;4.95;;;;;;;18.28;50.78;102600.44;5085416;28;20155;-59
2022/11/13 03:06:00;;;;;;;4.78;4.00;;;;;;;18.28;50.96;102600.44;5085571;28;20021;-59
2022/11/13 03:08:25;;;;;;;4.97;4.28;;;;;;;18.29;50.67;102596.75;5085766;28;20029;-59
2022/11/13 03:10:51;;;;;;;4.85;4.15;;;;;;;18.28;50.80;102595.06;5085041;28;20581;-59
2022/11/13 03:13:17;;;;;;;4.80;4.07;;;;;;;18.27;50.84;102594.19;5090818;28;20048;-59
2022/11/13 03:15:42;;;;;;;4.60;4.15;;;;;;;18.26;50.93;102584.38;5105476;28;20035;-58
2022/11/13 03:18:08;;;;;;;5.18;4.40;;;;;;;18.26;50.73;102584.38;5105642;28;20035;-59
2022/11/13 03:20:35;;;;;;;5.78;4.00;;;;;;;18.25;50.80;102588.06;5105219;28;20071;-59
2022/11/13 03:23:01;;;;;;;5.25;4.20;;;;;;;18.22;50.85;102577.53;5105618;28;20028;-60
2022/11/13 03:25:26;;;;;;;5.55;4.18;;;;;;;18.24;51.11;102576.44;5104938;28;20038;-59
2022/11/13 03:27:52;;;;;;;6.18;4.60;;;;;;;18.20;50.89;102566.91;5099956;28;20028;-60
2022/11/13 03:30:17;;;;;;;4.90;4.07;;;;;;;18.00;51.00;102532.66;5084881;28;20036;-60
2022/11/13 03:32:42;;;;;;;5.15;4.10;;;;;;;18.20;50.92;102566.91;5085248;28;20025;-60
2022/11/13 03:35:08;;;;;;;4.55;4.15;;;;;;;18.22;51.27;102572.16;5084698;28;20032;-60
2022/11/13 03:37:33;;;;;;;4.90;3.90;;;;;;;18.10;50.95;102552.47;5084161;28;20028;-59
2022/11/13 03:39:58;;;;;;;7.18;4.63;;;;;;;18.20;50.98;102566.91;5084285;28;20032;-60
2022/11/13 03:42:23;;;;;;;4.30;3.80;;;;;;;17.93;50.79;102540.38;5085102;28;20025;-60
2022/11/13 03:44:49;;;;;;;4.63;3.80;;;;;;;18.19;50.74;102557.13;5066886;28;20111;-60
2022/11/13 03:47:14;;;;;;;4.75;4.03;;;;;;;18.19;50.97;102561.66;5084609;28;20052;-59
2022/11/13 03:49:39;;;;;;;4.38;3.65;;;;;;;18.17;50.76;102551.00;5084528;28;20020;-61
2022/11/13 03:52:04;;;;;;;4.03;3.58;;;;;;;18.18;50.96;102550.03;5084417;28;20471;-60
2022/11/13 03:54:30;;;;;;;4.22;3.60;;;;;;;18.17;51.00;102552.81;5084209;28;20028;-60
2022/11/13 03:56:55;;;;;;;4.97;4.20;;;;;;;18.17;50.75;102545.59;5066060;28;20461;-60
2022/11/13 03:59:20;;;;;;;4.72;3.90;;;;;;;18.16;50.90;102543.91;5065814;28;20028;-60
2022/11/13 04:01:46;;;;;;;4.13;3.72;;;;;;;18.16;50.75;102540.34;5084434;28;20380;-60
2022/11/13 04:04:11;;;;;;;5.30;3.80;;;;;;;18.15;51.02;102542.19;5084351;28;20073;-60
2022/11/13 04:06:36;;;;;;;5.22;3.70;;;;;;;18.14;50.71;102540.50;5084310;28;20095;-60
2022/11/13 04:09:01;;;;;;;4.93;3.70;;;;;;;18.07;50.80;102525.81;5084246;28;20515;-60
2022/11/13 04:11:27;;;;;;;4.35;3.88;;;;;;;18.14;50.65;102543.19;5084086;28;20032;-60
2022/11/13 04:13:52;;;;;;;4.10;3.70;;;;;;;18.01;50.75;102525.44;5066066;28;20028;-60
2022/11/13 04:16:17;;;;;;;5.07;3.67;;;;;;;18.13;50.97;102536.06;5083883;28;20680;-60
2022/11/13 04:18:42;;;;;;;4.65;3.92;;;;;;;18.05;50.62;102521.50;5084004;28;20033;-59
2022/11/13 04:21:08;;;;;;;4.28;3.88;;;;;;;18.07;50.71;102525.81;5084025;28;20106;-60
2022/11/13 04:23:33;;;;;;;4.53;3.95;;;;;;;18.11;50.89;102534.50;5084067;28;20072;-60
2022/11/13 04:25:58;;;;;;;4.60;3.97;;;;;;;18.10;50.79;102535.47;5083224;28;20031;-60
2022/11/13 04:28:24;;;;;;;4.22;3.40;;;;;;;18.05;50.85;102526.91;5083959;28;20054;-60
2022/11/13 04:30:52;;;;;;;4.95;3.85;;;;;;;17.97;50.75;102512.25;5083902;28;20068;-60
2022/11/13 04:33:17;;;;;;;4.20;3.80;;;;;;;18.09;50.95;102525.66;5083978;28;20029;-60
2022/11/13 04:35:44;;;;;;;3.53;3.05;;;;;;;17.72;50.61;102459.50;5083473;28;20029;-60
2022/11/13 04:38:11;;;;;;;4.43;3.63;;;;;;;18.09;50.64;102517.59;5083915;28;20044;-60
2022/11/13 04:40:36;;;;;;;4.00;3.60;;;;;;;17.84;50.84;102492.69;5083116;28;20369;-60
2022/11/13 04:43:01;;;;;;;3.85;3.30;;;;;;;18.07;50.86;102528.50;5083633;28;20126;-60
2022/11/13 04:45:27;;;;;;;4.22;3.38;;;;;;;18.04;51.02;102519.81;5083274;28;20028;-60
2022/11/13 04:47:52;;;;;;;3.78;3.38;;;;;;;18.07;50.97;102533.88;5083774;28;20067;-59
2022/11/13 04:50:18;;;;;;;4.22;3.50;;;;;;;18.07;50.78;102533.88;5083047;28;20035;-60
2022/11/13 04:52:43;;;;;;;3.83;3.42;;;;;;;18.06;50.61;102537.56;5082929;28;20025;-59
2022/11/13 04:55:09;;;;;;;4.28;3.38;;;;;;;18.06;50.80;102531.31;5082909;28;20058;-59
2022/11/13 04:57:35;;;;;;;3.72;3.35;;;;;;;18.05;50.68;102521.50;5083287;28;20033;-59
2022/11/13 05:00:01;;;;;;;4.88;3.20;;;;;;;18.04;50.93;102519.81;5082869;28;20460;-59
2022/11/13 05:02:26;;;;;;;3.60;3.22;;;;;;;18.04;50.91;102525.19;5082923;28;20028;-60
2022/11/13 05:04:51;;;;;;;4.85;3.50;;;;;;;18.04;50.95;102526.03;5082983;28;20029;-59
2022/11/13 05:07:17;;;;;;;3.80;3.25;;;;;;;18.05;50.91;102526.91;5083097;28;20032;-59
2022/11/13 05:09:42;;;;;;;4.85;3.28;;;;;;;18.04;50.67;102520.66;5082505;28;20433;-60
2022/11/13 05:12:08;;;;;;;3.40;3.05;;;;;;;17.97;50.74;102511.38;5082827;28;20108;-60
2022/11/13 05:14:37;;;;;;;4.72;3.47;;;;;;;18.03;50.88;102518.09;5085542;28;20127;-60
2022/11/13 05:17:03;;;;;;;4.43;3.28;;;;;;;18.04;50.78;102522.50;5082594;28;20040;-59
2022/11/13 05:19:29;;;;;;;3.75;3.35;;;;;;;18.01;50.83;102510.16;5082834;28;20035;-60
2022/11/13 05:21:54;;;;;;;3.45;3.15;;;;;;;18.01;51.05;102509.28;5082352;28;20056;-60
2022/11/13 05:24:19;;;;;;;4.75;3.50;;;;;;;18.02;50.56;102511.03;5082877;28;20035;-61
2022/11/13 05:26:44;;;;;;;4.70;3.55;;;;;;;18.02;50.54;102514.56;5082339;28;20257;-58
2022/11/13 05:29:10;;;;;;;3.78;3.35;;;;;;;18.02;50.84;102511.03;5083024;28;20029;-59
2022/11/13 05:31:35;;;;;;;3.70;2.75;;;;;;;18.03;50.49;102507.34;5082769;28;20071;-58
2022/11/13 05:34:02;;;;;;;5.53;3.22;;;;;;;18.02;50.64;102511.03;5082447;28;20101;-59
2022/11/13 05:36:28;;;;;;;4.57;4.18;;;;;;;18.02;50.64;102503.78;5082680;28;20126;-59
2022/11/13 05:38:53;;;;;;;3.50;3.20;;;;;;;18.01;50.64;102494.03;5082694;28;20036;-60
2022/11/13 05:41:20;;;;;;;4.18;3.03;;;;;;;18.02;50.75;102502.94;5082069;28;20020;-59
2022/11/13 05:43:45;;;;;;;3.95;3.10;;;;;;;18.01;50.62;102494.03;5082669;28;20145;-59
2022/11/13 05:46:12;;;;;;;3.97;3.08;;;;;;;18.01;50.44;102498.50;5082150;28;20032;-59
2022/11/13 05:48:37;;;;;;;4.90;3.45;;;;;;;18.02;50.42;102503.78;5081932;28;20032;-59
2022/11/13 05:51:08;;;;;;;4.97;3.33;;;;;;;18.02;50.50;102502.94;5081723;28;20046;-60
2022/11/13 05:53:34;;;;;;;3.08;2.78;;;;;;;17.98;50.68;102500.50;5079213;28;20027;-60
2022/11/13 05:56:24;;;;;;;3.83;3.42;;;;;;;18.03;50.34;102496.56;5078340;28;20055;-59
2022/11/13 05:58:51;;;;;;;4.45;3.38;;;;;;;18.03;50.54;102497.44;5071691;28;20102;-56
2022/11/13 06:01:22;;;;;;;3.40;3.10;;;;;;;18.05;50.45;102497.28;5083848;28;20028;-59
2022/11/13 06:03:48;;;;;;;5.43;3.33;;;;;;;18.05;50.58;102494.59;5083173;28;20571;-60
2022/11/13 06:06:15;;;;;;;3.45;2.97;;;;;;;17.99;50.48;102486.03;5085416;28;20044;-60
2022/11/13 06:08:41;;;;;;;3.63;3.33;;;;;;;18.06;50.73;102493.66;5083718;28;20489;-59
2022/11/13 06:11:11;;;;;;;4.90;3.30;;;;;;;18.02;50.68;102484.97;5085551;28;20059;-60
2022/11/13 06:13:37;;;;;;;4.45;3.13;;;;;;;17.87;50.77;102460.13;5083124;28;20033;-60
2022/11/13 06:16:12;;;;;;;4.18;3.13;;;;;;;18.08;50.88;102489.81;5085401;28;20028;-60
2022/11/13 06:18:38;;;;;;;4.65;3.33;;;;;;;18.09;50.84;102479.91;5085712;28;20024;-60
2022/11/13 06:21:09;;;;;;;3.90;3.25;;;;;;;18.02;50.81;102455.34;5085160;28;20048;-60
2022/11/13 06:23:35;;;;;;;4.70;3.38;;;;;;;18.09;51.01;102474.53;5085213;28;20028;-59
2022/11/13 06:26:15;;;;;;;3.20;2.90;;;;;;;18.10;51.02;102470.88;5085096;28;20020;-60
2022/11/13 06:28:40;;;;;;;4.50;2.80;;;;;;;18.10;50.71;102468.19;5084695;28;20016;-58
2022/11/13 06:31:18;;;;;;;4.70;3.40;;;;;;;18.10;51.00;102462.81;5085096;28;20050;-58
2022/11/13 06:33:44;;;;;;;3.35;3.00;;;;;;;18.11;50.78;102461.81;5085302;28;20029;-59
2022/11/13 06:36:18;;;;;;;4.15;3.22;;;;;;;18.11;50.90;102464.50;5085041;28;20025;-59
2022/11/13 06:38:43;;;;;;;4.57;3.45;;;;;;;18.11;51.10;102457.28;5082997;28;20031;-59
2022/11/13 06:41:12;;;;;;;3.30;2.85;;;;;;;18.11;50.96;102457.28;5084849;28;20024;-60
2022/11/13 06:43:38;;;;;;;4.50;3.22;;;;;;;18.11;51.17;102451.06;5084648;28;20066;-60
2022/11/13 06:46:14;;;;;;;3.35;2.92;;;;;;;18.12;51.00;102459.00;5084791;28;20029;-61
2022/11/13 06:48:40;;;;;;;5.70;3.50;;;;;;;18.11;51.17;102445.66;5085036;28;20029;-64
2022/11/13 06:51:07;;;;;;;5.65;3.10;;;;;;;18.14;50.94;102461.56;5085421;28;20093;-63
2022/11/13 06:53:32;;;;;;;5.15;3.33;;;;;;;18.14;50.73;102459.72;5084936;28;20029;-63
2022/11/13 06:55:59;;;;;;;6.10;3.40;;;;;;;18.12;50.69;102453.59;5085074;28;20466;-63
2022/11/13 06:58:24;;;;;;;3.08;2.70;;;;;;;18.08;50.84;102451.28;5085646;28;20115;-63
2022/11/13 07:00:49;;;;;;;4.15;3.00;;;;;;;18.05;50.93;102438.06;5085582;28;20036;-63
2022/11/13 07:03:23;;;;;;;3.85;2.85;;;;;;;18.14;51.00;102450.81;5085314;28;20028;-64
2022/11/13 07:05:48;;;;;;;5.05;3.30;;;;;;;18.16;50.80;102449.69;5085398;28;20033;-63
2022/11/13 07:08:14;;;;;;;5.15;3.53;;;;;;;18.16;51.21;102438.91;5085709;28;20039;-62
2022/11/13 07:10:40;;;;;;;5.15;3.22;;;;;;;18.17;51.07;102439.75;5085182;28;20107;-63
2022/11/13 07:13:05;;;;;;;7.07;2.80;;;;;;;18.18;50.99;102439.66;5087668;28;20028;-62
2022/11/13 07:15:35;;;;;;;4.40;3.10;;;;;;;18.17;50.90;102437.94;5095138;28;20024;-62
2022/11/13 07:18:01;;;;;;;4.82;2.97;;;;;;;18.18;51.17;102442.34;5085350;28;20088;-62
2022/11/13 07:20:26;;;;;;;4.55;2.90;;;;;;;18.13;51.09;102430.22;5084718;28;20057;-62
2022/11/13 07:22:57;;;;;;;4.45;3.00;;;;;;;18.21;50.74;102444.75;5085272;28;20019;-62
2022/11/13 07:25:23;;;;;;;7.50;3.17;;;;;;;18.22;51.07;102448.31;5084788;28;20024;-65
2022/11/13 07:27:49;;;;;;;3.55;2.80;;;;;;;18.24;51.34;102446.38;5084996;28;20163;-60
2022/11/13 07:30:14;;;;;;;4.40;2.83;;;;;;;18.24;51.13;102449.91;5085067;28;20028;-60
2022/11/13 07:32:39;;;;;;;5.88;3.25;;;;;;;18.26;51.33;102443.53;5076610;28;20314;-59
2022/11/13 07:35:05;;;;;;;4.97;3.28;;;;;;;18.25;51.77;102445.38;5081013;28;20028;-59
2022/11/13 07:37:30;;;;;;;4.05;2.90;;;;;;;18.24;51.33;102449.91;5085140;28;20028;-60
2022/11/13 07:39:56;;;;;;;5.50;2.92;;;;;;;18.25;51.53;102440.00;5083876;28;20020;-58
2022/11/13 07:42:21;;;;;;;6.93;3.28;;;;;;;18.28;51.63;102444.28;5083146;28;20028;-60
2022/11/13 07:44:46;;;;;;;5.57;2.90;;;;;;;18.22;51.55;102438.44;5084074;28;20111;-60
2022/11/13 07:47:11;;;;;;;5.22;2.97;;;;;;;18.28;51.42;102455.91;5083685;28;20082;-60
2022/11/13 07:49:37;;;;;;;3.72;3.05;;;;;;;18.28;51.50;102446.97;5084160;28;20029;-59
2022/11/13 07:52:02;;;;;;;5.53;3.03;;;;;;;18.31;51.49;102442.19;5084127;28;20059;-61
2022/11/13 07:54:27;;;;;;;5.97;3.40;;;;;;;18.30;51.54;102431.53;5075328;28;20477;-60
2022/11/13 07:56:52;;;;;;;4.30;2.88;;;;;;;18.37;51.31;102444.34;5077249;28;20028;-59
2022/11/13 07:59:18;;;;;;;5.28;3.70;;;;;;;18.43;51.27;102442.97;5082718;28;20715;-62
2022/11/13 08:01:43;;;;;;;4.72;2.90;;;;;;;18.44;51.22;102444.72;5083367;28;20059;-62
2022/11/13 08:04:08;;;;;;;3.70;3.00;;;;;;;18.47;50.72;102441.75;5083474;28;20096;-62
2022/11/13 08:06:36;;;;;;;3.88;2.92;;;;;;;18.48;50.96;102446.16;5083686;28;20021;-61
2022/11/13 08:09:01;;;;;;;4.78;3.20;;;;;;;18.51;50.78;102445.03;5065394;28;20099;-62
2022/11/13 08:11:26;;;;;;;3.60;3.17;;;;;;;18.22;50.55;102395.34;5083150;28;20036;-59
2022/11/13 08:13:51;;;;;;;7.70;3.40;;;;;;;18.54;50.56;102447.47;5089658;28;20028;-60
2022/11/13 08:16:17;;;;;;;4.20;3.67;;;;;;;18.57;50.62;102444.53;5083456;28;20451;-64
2022/11/13 08:18:42;;;;;;;4.40;3.60;;;;;;;18.57;50.36;102442.69;5083340;28;20028;-63
2022/11/13 08:21:07;;;;;;;6.45;3.65;;;;;;;18.54;50.54;102434.00;5082853;28;20036;-63
2022/11/13 08:23:32;;;;;;;4.82;3.92;;;;;;;18.59;50.07;102440.72;5083041;28;20076;-62
2022/11/13 08:26:02;;;;;;;5.07;3.92;;;;;;;18.61;50.20;102446.00;5082744;28;20024;-60
2022/11/13 08:28:28;;;;;;;4.97;3.90;;;;;;;18.63;49.93;102430.53;5065761;28;20020;-61
2022/11/13 08:30:53;;;;;;;6.50;3.85;;;;;;;18.67;49.64;102437.38;5083093;28;20063;-57
2022/11/13 08:33:18;;;;;;;6.20;3.55;;;;;;;18.67;49.73;102426.59;5083308;28;20063;-57
2022/11/13 08:35:51;;;;;;;6.25;4.45;;;;;;;18.75;49.44;102426.84;5082866;28;20059;-63
2022/11/13 08:38:16;;;;;;;8.10;4.68;;;;;;;18.79;49.48;102411.28;5083388;28;20043;-61
2022/11/13 08:40:41;;;;;;;4.65;4.00;;;;;;;18.81;49.38;102415.53;5082933;28;20024;-61
2022/11/13 08:43:07;;;;;;;5.05;4.50;;;;;;;18.83;48.97;102405.50;5082854;28;20024;-62
2022/11/13 08:45:32;;;;;;;5.75;4.20;;;;;;;18.85;49.06;102408.03;5082700;28;20561;-62
2022/11/13 08:48:01;;;;;;;5.25;3.97;;;;;;;18.87;49.11;102403.38;5082909;28;20393;-60
2022/11/13 08:50:27;;;;;;;;;;;;;;;18.89;49.00;102406.78;5083047;28;20481;-62
2022/11/13 08:52:54;;;;;;;7.53;4.70;;;;;;;18.90;49.15;102395.91;5082969;28;19916;-61
2022/11/13 08:55:19;;;;;;;5.72;4.47;;;;;;;18.75;49.08;102370.25;5082449;28;20032;-60
2022/11/13 08:57:45;;;;;;;4.72;4.22;;;;;;;18.89;49.20;102394.16;5083093;28;20038;-60
2022/11/13 09:00:10;;;;;;;5.00;4.40;;;;;;;18.92;48.93;102395.75;5082488;28;20028;-63
2022/11/13 09:02:36;;;;;;;5.28;4.35;;;;;;;18.94;48.94;102401.84;5090962;28;20024;-61
2022/11/13 09:05:01;;;;;;;5.43;4.25;;;;;;;18.96;48.86;102397.19;5083260;28;20032;-60
2022/11/13 09:07:26;;;;;;;6.00;4.18;;;;;;;18.95;49.01;102392.81;5084105;28;20081;-60
2022/11/13 09:09:52;;;;;;;4.35;3.95;;;;;;;19.01;49.04;102402.19;5082552;28;20036;-64
2022/11/13 09:12:17;;;;;;;8.65;4.40;;;;;;;19.04;48.63;102401.94;5082406;28;20039;-61
2022/11/13 09:14:42;;;;;;;9.05;4.40;;;;;;;19.06;48.63;102398.09;5087057;28;20029;-59
2022/11/13 09:17:07;;;;;;;6.32;4.80;;;;;;;19.08;48.75;102401.53;5078632;28;20036;-61
2022/11/13 09:19:33;;;;;;;5.70;5.10;;;;;;;19.08;48.78;102397.97;5082766;28;20434;-60
2022/11/13 09:21:59;;;;;;;5.15;4.47;;;;;;;19.11;48.59;102392.28;5079552;28;20033;-57
2022/11/13 09:24:24;;;;;;;6.53;5.05;;;;;;;19.06;48.60;102387.31;5089094;28;20508;-60
2022/11/13 09:26:50;;;;;;;4.95;3.95;;;;;;;19.11;48.38;102395.00;5079615;28;20055;-61
2022/11/13 09:29:15;;;;;;;7.13;4.45;;;;;;;19.07;48.58;102380.06;5080460;28;20032;-60
2022/11/13 09:31:40;;;;;;;6.05;4.38;;;;;;;19.12;48.29;102384.09;5074490;28;20036;-60
2022/11/13 09:34:07;;;;;;;4.35;3.90;;;;;;;19.04;48.54;102372.28;5074677;28;20017;-59
2022/11/13 09:36:32;;;;;;;5.03;3.72;;;;;;;19.13;48.42;102385.78;5060427;28;20139;-59
2022/11/13 09:38:59;;;;;;;4.95;4.43;;;;;;;19.14;48.69;102375.88;5080642;28;20201;-58
2022/11/13 09:41:30;;;;;;;6.00;4.60;;;;;;;19.08;48.58;102373.72;5082912;28;20036;-58
2022/11/13 09:43:59;;;;;;;4.57;4.05;;;;;;;19.17;48.64;102378.31;5061622;28;20049;-60
2022/11/13 09:46:35;;;;;;;5.32;4.65;;;;;;;19.17;48.64;102384.53;5079679;28;20084;-59
2022/11/13 09:49:14;;;;;;;5.72;4.57;;;;;;;19.18;48.52;102380.00;5059627;28;20115;-60
2022/11/13 09:51:40;;;;;;;5.63;4.32;;;;;;;19.19;48.66;102376.31;5078295;28;20028;-62
2022/11/13 09:54:09;;;;;;;4.47;4.05;;;;;;;19.20;48.44;102380.72;5060559;28;20048;-60
2022/11/13 09:56:57;;;;;;;5.20;3.72;;;;;;;19.21;48.63;102366.25;5061669;28;20029;-60
2022/11/13 09:59:53;;;;;;;5.22;4.70;;;;;;;19.21;48.41;102367.09;5059168;28;20035;-60
2022/11/13 10:02:52;;;;;;;5.25;4.43;;;;;;;19.21;48.72;102364.41;5084294;28;20024;-60
2022/11/13 10:05:20;;;;;;;;;;;;;;;19.30;48.65;102370.84;5061116;28;20028;-60
2022/11/13 10:07:57;;;;;;;6.22;4.40;;;;;;;19.35;48.59;102370.41;5062696;28;19917;-60
2022/11/13 10:10:37;;;;;;;7.47;3.80;;;;;;;19.41;48.43;102362.66;5080013;28;20028;-60
2022/11/13 10:13:03;;;;;;;4.93;4.10;;;;;;;19.48;48.62;102362.94;5079667;28;20020;-60
2022/11/13 10:15:29;;;;;;;5.43;3.90;;;;;;;19.54;48.84;102362.41;5082700;28;20017;-60
2022/11/13 10:18:02;;;;;;;5.72;4.00;;;;;;;19.58;48.21;102361.16;5075561;28;20024;-59
2022/11/13 10:20:36;;;;;;;4.32;3.58;;;;;;;19.59;48.36;102356.59;5058279;28;20054;-61
2022/11/13 10:23:08;;;;;;;6.32;4.68;;;;;;;19.59;47.95;102357.44;5065697;28;20040;-60
2022/11/13 10:25:36;;;;;;;4.30;3.40;;;;;;;19.62;47.98;102350.94;5063328;28;20032;-58
2022/11/13 10:28:16;;;;;;;5.18;4.40;;;;;;;19.65;48.11;102345.28;5079119;28;20103;-61
2022/11/13 10:30:41;;;;;;;6.30;3.75;;;;;;;19.53;47.78;102325.59;5079504;28;20036;-57
2022/11/13 10:33:08;;;;;;;5.35;3.53;;;;;;;19.61;48.00;102341.16;5065625;28;20032;-58
2022/11/13 10:35:37;;;;;;;5.38;3.38;;;;;;;19.60;47.76;102345.66;5061903;28;20034;-60
2022/11/13 10:38:13;;;;;;;4.40;3.10;;;;;;;19.59;47.77;102343.97;5077279;28;20080;-60
2022/11/13 10:40:39;;;;;;;4.28;3.70;;;;;;;19.59;47.94;102341.25;5066570;28;20029;-59
2022/11/13 10:43:04;;;;;;;3.72;3.40;;;;;;;19.59;47.84;102341.25;5090491;28;20024;-61
2022/11/13 10:45:29;;;;;;;5.55;3.60;;;;;;;19.51;48.12;102313.28;5085117;28;20035;-61
2022/11/13 10:47:55;;;;;;;4.20;3.67;;;;;;;19.32;48.29;102285.25;5076060;28;20021;-60
2022/11/13 10:50:25;;;;;;;3.92;3.47;;;;;;;19.59;47.90;102324.22;5078903;28;20091;-60
2022/11/13 10:52:53;;;;;;;4.30;3.13;;;;;;;19.59;47.95;102318.81;5057574;28;20041;-61
2022/11/13 10:55:45;;;;;;;6.03;3.78;;;;;;;19.60;48.38;102323.22;5084785;28;20407;-61
2022/11/13 10:58:18;;;;;;;4.55;3.40;;;;;;;19.60;48.16;102313.28;5060325;28;20025;-60
2022/11/13 11:00:47;;;;;;;3.80;3.25;;;;;;;19.65;48.36;102312.88;5081098;28;20104;-61
2022/11/13 11:03:14;;;;;;;4.00;3.60;;;;;;;19.65;48.26;102311.03;5083416;28;20032;-62
2022/11/13 11:05:50;;;;;;;4.28;3.03;;;;;;;19.66;48.05;102306.50;5084530;28;20039;-61
2022/11/13 11:08:16;;;;;;;3.67;3.28;;;;;;;19.67;48.11;102300.97;5067365;28;20021;-61
2022/11/13 11:12:14;;;;;;;3.67;2.95;;;;;;;19.68;48.33;102304.53;5084551;28;20144;-62
2022/11/13 11:13:26;;;;;;;4.95;3.35;;;;;;;19.68;48.40;102293.72;5091958;28;20432;-61
2022/11/13 11:16:00;;;;;;;4.28;3.60;;;;;;;19.67;48.47;102289.34;5086921;28;20028;-61
2022/11/13 11:18:40;;;;;;;3.53;3.20;;;;;;;19.66;48.43;102283.06;5087655;28;20032;-60
2022/11/13 11:21:09;;;;;;;4.15;3.30;;;;;;;19.67;48.67;102284.78;5046886;28;20064;-61
2022/11/13 11:23:40;;;;;;;4.70;2.92;;;;;;;19.66;48.58;102279.50;5047321;28;20025;-61
2022/11/13 11:26:11;;;;;;;4.28;3.47;;;;;;;19.58;48.53;102271.22;5068679;28;20063;-61
2022/11/13 11:28:50;;;;;;;3.42;2.95;;;;;;;19.51;49.14;102246.69;5066703;28;20074;-57